sensor_id;sensor_type;location;lat;lon;timestamp;temperature;humidity
3504;DHT22;1766;53.490;10.174;2024-02-15T00:01:36;17.40;70.70
3504;DHT22;1766;53.490;10.174;2024-02-15T00:03:38;17.40;70.70
3504;DHT22;1766;53.490;10.174;2024-02-15T00:05:40;17.40;70.60
3504;DHT22;1766;53.490;10.174;2024-02-15T00:07:45;17.40;70.70
3504;DHT22;1766;53.490;10.174;2024-02-15T00:09:49;17.40;70.80
3504;DHT22;1766;53.490;10.174;2024-02-15T00:11:52;17.40;70.20
3504;DHT22;1766;53.490;10.174;2024-02-15T00:13:54;17.40;70.70
3504;DHT22;1766;53.490;10.174;2024-02-15T00:15:57;17.40;70.60
3504;DHT22;1766;53.490;10.174;2024-02-15T00:17:59;17.40;70.70
3504;DHT22;1766;53.490;10.174;2024-02-15T00:20:01;17.40;70.80
3504;DHT22;1766;53.490;10.174;2024-02-15T00:22:04;17.40;70.90
3504;DHT22;1766;53.490;10.174;2024-02-15T00:24:06;17.40;70.90
3504;DHT22;1766;53.490;10.174;2024-02-15T00:26:07;17.40;70.90
3504;DHT22;1766;53.490;10.174;2024-02-15T00:28:11;17.40;70.90
3504;DHT22;1766;53.490;10.174;2024-02-15T00:30:14;17.40;70.90
3504;DHT22;1766;53.490;10.174;2024-02-15T00:32:17;17.40;70.90
3504;DHT22;1766;53.490;10.174;2024-02-15T00:34:20;17.40;70.90
3504;DHT22;1766;53.490;10.174;2024-02-15T00:36:22;17.40;71.00
3504;DHT22;1766;53.490;10.174;2024-02-15T00:38:24;17.40;70.90
3504;DHT22;1766;53.490;10.174;2024-02-15T00:40:26;17.40;71.00
3504;DHT22;1766;53.490;10.174;2024-02-15T00:42:28;17.40;71.00
3504;DHT22;1766;53.490;10.174;2024-02-15T00:44:30;17.40;71.10
3504;DHT22;1766;53.490;10.174;2024-02-15T00:46:32;17.50;71.10
3504;DHT22;1766;53.490;10.174;2024-02-15T00:48:34;17.50;71.10
3504;DHT22;1766;53.490;10.174;2024-02-15T00:50:36;17.50;71.10
3504;DHT22;1766;53.490;10.174;2024-02-15T00:52:38;17.50;71.00
3504;DHT22;1766;53.490;10.174;2024-02-15T00:54:39;17.50;71.00
3504;DHT22;1766;53.490;10.174;2024-02-15T00:56:42;17.50;71.10
3504;DHT22;1766;53.490;10.174;2024-02-15T00:58:43;17.50;71.10
3504;DHT22;1766;53.490;10.174;2024-02-15T01:00:46;17.50;71.10
3504;DHT22;1766;53.490;10.174;2024-02-15T01:02:48;17.50;71.10
3504;DHT22;1766;53.490;10.174;2024-02-15T01:04:51;17.50;71.20
3504;DHT22;1766;53.490;10.174;2024-02-15T01:06:55;17.50;71.30
3504;DHT22;1766;53.490;10.174;2024-02-15T01:08:57;17.50;71.30
3504;DHT22;1766;53.490;10.174;2024-02-15T01:11:01;17.50;71.30
3504;DHT22;1766;53.490;10.174;2024-02-15T01:13:04;17.50;71.40
3504;DHT22;1766;53.490;10.174;2024-02-15T01:15:07;17.50;71.30
3504;DHT22;1766;53.490;10.174;2024-02-15T01:17:09;16.50;70.40
3504;DHT22;1766;53.490;10.174;2024-02-15T01:19:11;17.60;71.50
3504;DHT22;1766;53.490;10.174;2024-02-15T01:21:13;17.50;71.40
3504;DHT22;1766;53.490;10.174;2024-02-15T01:23:15;17.60;71.40
3504;DHT22;1766;53.490;10.174;2024-02-15T01:25:17;17.60;71.40
3504;DHT22;1766;53.490;10.174;2024-02-15T01:27:18;17.60;71.40
3504;DHT22;1766;53.490;10.174;2024-02-15T01:29:20;17.60;71.40
3504;DHT22;1766;53.490;10.174;2024-02-15T01:31:22;17.60;71.50
3504;DHT22;1766;53.490;10.174;2024-02-15T01:33:26;17.60;71.40
3504;DHT22;1766;53.490;10.174;2024-02-15T01:35:28;17.60;71.50
3504;DHT22;1766;53.490;10.174;2024-02-15T01:37:30;17.60;71.30
3504;DHT22;1766;53.490;10.174;2024-02-15T01:39:32;17.60;71.30
3504;DHT22;1766;53.490;10.174;2024-02-15T01:41:34;17.60;71.20
3504;DHT22;1766;53.490;10.174;2024-02-15T01:43:36;17.60;71.40
3504;DHT22;1766;53.490;10.174;2024-02-15T01:45:37;17.60;71.40
3504;DHT22;1766;53.490;10.174;2024-02-15T01:47:39;17.70;71.50
3504;DHT22;1766;53.490;10.174;2024-02-15T01:49:44;17.60;71.30
3504;DHT22;1766;53.490;10.174;2024-02-15T01:51:46;17.70;71.40
3504;DHT22;1766;53.490;10.174;2024-02-15T01:53:49;17.60;71.40
3504;DHT22;1766;53.490;10.174;2024-02-15T01:55:52;17.60;71.40
3504;DHT22;1766;53.490;10.174;2024-02-15T01:57:53;17.60;71.50
3504;DHT22;1766;53.490;10.174;2024-02-15T01:59:55;17.70;71.50
3504;DHT22;1766;53.490;10.174;2024-02-15T02:01:57;17.70;71.50
3504;DHT22;1766;53.490;10.174;2024-02-15T02:04:00;17.70;71.50
3504;DHT22;1766;53.490;10.174;2024-02-15T02:06:03;17.60;71.50
3504;DHT22;1766;53.490;10.174;2024-02-15T02:08:06;17.70;71.60
3504;DHT22;1766;53.490;10.174;2024-02-15T02:10:10;17.70;71.70
3504;DHT22;1766;53.490;10.174;2024-02-15T02:12:12;17.70;71.60
3504;DHT22;1766;53.490;10.174;2024-02-15T02:14:15;17.60;71.50
3504;DHT22;1766;53.490;10.174;2024-02-15T02:16:24;17.60;71.70
3504;DHT22;1766;53.490;10.174;2024-02-15T02:18:27;17.70;71.60
3504;DHT22;1766;53.490;10.174;2024-02-15T02:20:29;17.70;71.50
3504;DHT22;1766;53.490;10.174;2024-02-15T02:22:31;17.70;71.60
3504;DHT22;1766;53.490;10.174;2024-02-15T02:24:39;17.70;71.60
3504;DHT22;1766;53.490;10.174;2024-02-15T02:26:44;17.70;71.80
3504;DHT22;1766;53.490;10.174;2024-02-15T02:28:46;17.70;71.70
3504;DHT22;1766;53.490;10.174;2024-02-15T02:30:47;17.70;71.70
3504;DHT22;1766;53.490;10.174;2024-02-15T02:32:50;17.70;71.80
3504;DHT22;1766;53.490;10.174;2024-02-15T02:34:51;17.70;71.80
3504;DHT22;1766;53.490;10.174;2024-02-15T02:36:57;17.70;71.80
3504;DHT22;1766;53.490;10.174;2024-02-15T02:39:02;17.70;71.70
3504;DHT22;1766;53.490;10.174;2024-02-15T02:41:04;17.70;71.70
3504;DHT22;1766;53.490;10.174;2024-02-15T02:43:07;17.80;71.80
3504;DHT22;1766;53.490;10.174;2024-02-15T02:45:10;17.80;72.40
3504;DHT22;1766;53.490;10.174;2024-02-15T02:47:12;17.70;71.70
3504;DHT22;1766;53.490;10.174;2024-02-15T02:49:13;17.70;71.70
3504;DHT22;1766;53.490;10.174;2024-02-15T02:51:15;17.80;71.80
3504;DHT22;1766;53.490;10.174;2024-02-15T02:53:17;17.80;71.90
3504;DHT22;1766;53.490;10.174;2024-02-15T02:55:19;17.80;71.80
3504;DHT22;1766;53.490;10.174;2024-02-15T02:57:21;17.80;71.80
3504;DHT22;1766;53.490;10.174;2024-02-15T02:59:24;17.80;71.80
3504;DHT22;1766;53.490;10.174;2024-02-15T03:01:25;17.80;71.80
3504;DHT22;1766;53.490;10.174;2024-02-15T03:03:27;17.80;71.80
3504;DHT22;1766;53.490;10.174;2024-02-15T03:05:29;17.80;71.70
3504;DHT22;1766;53.490;10.174;2024-02-15T03:07:33;17.80;71.70
3504;DHT22;1766;53.490;10.174;2024-02-15T03:09:35;17.90;71.70
3504;DHT22;1766;53.490;10.174;2024-02-15T03:11:38;17.80;71.50
3504;DHT22;1766;53.490;10.174;2024-02-15T03:13:39;17.80;71.60
3504;DHT22;1766;53.490;10.174;2024-02-15T03:15:44;17.80;71.60
3504;DHT22;1766;53.490;10.174;2024-02-15T03:17:48;17.90;71.70
3504;DHT22;1766;53.490;10.174;2024-02-15T03:19:49;17.90;72.30
3504;DHT22;1766;53.490;10.174;2024-02-15T03:21:51;17.90;71.60
3504;DHT22;1766;53.490;10.174;2024-02-15T03:23:53;17.90;71.60
3504;DHT22;1766;53.490;10.174;2024-02-15T03:25:54;17.90;71.60
3504;DHT22;1766;53.490;10.174;2024-02-15T03:27:57;17.80;71.40
3504;DHT22;1766;53.490;10.174;2024-02-15T03:30:04;17.90;71.70
3504;DHT22;1766;53.490;10.174;2024-02-15T03:32:08;17.80;71.60
3504;DHT22;1766;53.490;10.174;2024-02-15T03:34:11;17.80;71.50
3504;DHT22;1766;53.490;10.174;2024-02-15T03:36:16;17.80;71.60
3504;DHT22;1766;53.490;10.174;2024-02-15T03:38:20;17.80;71.70
3504;DHT22;1766;53.490;10.174;2024-02-15T03:40:22;17.80;71.70
3504;DHT22;1766;53.490;10.174;2024-02-15T03:42:24;17.80;71.70
3504;DHT22;1766;53.490;10.174;2024-02-15T03:44:27;17.80;71.70
3504;DHT22;1766;53.490;10.174;2024-02-15T03:46:29;17.80;71.80
3504;DHT22;1766;53.490;10.174;2024-02-15T03:48:32;17.80;71.70
3504;DHT22;1766;53.490;10.174;2024-02-15T03:50:33;17.80;71.80
3504;DHT22;1766;53.490;10.174;2024-02-15T03:52:35;17.80;71.80
3504;DHT22;1766;53.490;10.174;2024-02-15T03:54:36;17.70;71.90
3504;DHT22;1766;53.490;10.174;2024-02-15T03:56:46;17.80;71.90
3504;DHT22;1766;53.490;10.174;2024-02-15T03:58:51;17.80;72.10
3504;DHT22;1766;53.490;10.174;2024-02-15T04:00:53;17.80;72.00
3504;DHT22;1766;53.490;10.174;2024-02-15T04:02:57;17.80;72.10
3504;DHT22;1766;53.490;10.174;2024-02-15T04:05:01;17.80;72.10
3504;DHT22;1766;53.490;10.174;2024-02-15T04:07:05;17.80;72.20
3504;DHT22;1766;53.490;10.174;2024-02-15T04:09:07;17.80;72.20
3504;DHT22;1766;53.490;10.174;2024-02-15T04:11:11;17.80;72.20
3504;DHT22;1766;53.490;10.174;2024-02-15T04:13:13;17.80;72.90
3504;DHT22;1766;53.490;10.174;2024-02-15T04:15:15;17.80;72.30
3504;DHT22;1766;53.490;10.174;2024-02-15T04:17:17;17.80;72.30
3504;DHT22;1766;53.490;10.174;2024-02-15T04:19:21;17.80;72.30
3504;DHT22;1766;53.490;10.174;2024-02-15T04:21:25;17.80;72.30
3504;DHT22;1766;53.490;10.174;2024-02-15T04:23:28;17.90;72.40
3504;DHT22;1766;53.490;10.174;2024-02-15T04:25:30;17.90;72.30
3504;DHT22;1766;53.490;10.174;2024-02-15T04:27:32;17.90;72.30
3504;DHT22;1766;53.490;10.174;2024-02-15T04:29:34;17.90;72.40
3504;DHT22;1766;53.490;10.174;2024-02-15T04:31:38;17.90;72.40
3504;DHT22;1766;53.490;10.174;2024-02-15T04:33:39;17.90;72.40
3504;DHT22;1766;53.490;10.174;2024-02-15T04:35:42;17.90;72.40
3504;DHT22;1766;53.490;10.174;2024-02-15T04:37:45;17.90;72.40
3504;DHT22;1766;53.490;10.174;2024-02-15T04:39:48;17.90;72.50
3504;DHT22;1766;53.490;10.174;2024-02-15T04:41:50;17.90;72.40
3504;DHT22;1766;53.490;10.174;2024-02-15T04:43:51;17.90;72.30
3504;DHT22;1766;53.490;10.174;2024-02-15T04:45:53;17.90;71.90
3504;DHT22;1766;53.490;10.174;2024-02-15T04:47:56;17.90;72.40
3504;DHT22;1766;53.490;10.174;2024-02-15T04:50:02;17.90;72.30
3504;DHT22;1766;53.490;10.174;2024-02-15T04:52:06;17.90;72.40
3504;DHT22;1766;53.490;10.174;2024-02-15T04:54:11;17.90;72.40
3504;DHT22;1766;53.490;10.174;2024-02-15T04:56:13;17.90;72.50
3504;DHT22;1766;53.490;10.174;2024-02-15T04:58:16;17.90;72.50
3504;DHT22;1766;53.490;10.174;2024-02-15T05:00:18;17.90;72.40
3504;DHT22;1766;53.490;10.174;2024-02-15T05:02:21;17.90;72.50
3504;DHT22;1766;53.490;10.174;2024-02-15T05:04:25;17.90;72.50
3504;DHT22;1766;53.490;10.174;2024-02-15T05:06:27;17.90;72.50
3504;DHT22;1766;53.490;10.174;2024-02-15T05:08:30;18.00;72.70
3504;DHT22;1766;53.490;10.174;2024-02-15T05:10:34;18.00;72.60
3504;DHT22;1766;53.490;10.174;2024-02-15T05:12:37;18.00;72.50
3504;DHT22;1766;53.490;10.174;2024-02-15T05:14:40;18.00;72.60
3504;DHT22;1766;53.490;10.174;2024-02-15T05:16:43;18.00;72.60
3504;DHT22;1766;53.490;10.174;2024-02-15T05:18:48;18.00;72.60
3504;DHT22;1766;53.490;10.174;2024-02-15T05:20:50;18.00;72.60
3504;DHT22;1766;53.490;10.174;2024-02-15T05:22:52;18.00;72.60
3504;DHT22;1766;53.490;10.174;2024-02-15T05:24:55;18.00;72.60
3504;DHT22;1766;53.490;10.174;2024-02-15T05:26:58;18.00;72.10
3504;DHT22;1766;53.490;10.174;2024-02-15T05:29:00;18.00;72.70
3504;DHT22;1766;53.490;10.174;2024-02-15T05:31:10;18.00;72.60
3504;DHT22;1766;53.490;10.174;2024-02-15T05:33:13;18.00;72.70
3504;DHT22;1766;53.490;10.174;2024-02-15T05:35:15;18.00;72.60
3504;DHT22;1766;53.490;10.174;2024-02-15T05:37:18;18.00;72.50
3504;DHT22;1766;53.490;10.174;2024-02-15T05:39:20;18.00;72.50
3504;DHT22;1766;53.490;10.174;2024-02-15T05:41:22;18.00;72.50
3504;DHT22;1766;53.490;10.174;2024-02-15T05:43:26;18.00;72.40
3504;DHT22;1766;53.490;10.174;2024-02-15T05:45:29;18.00;72.50
3504;DHT22;1766;53.490;10.174;2024-02-15T05:47:33;18.00;72.50
3504;DHT22;1766;53.490;10.174;2024-02-15T05:49:35;18.00;72.60
3504;DHT22;1766;53.490;10.174;2024-02-15T05:51:37;18.00;72.60
3504;DHT22;1766;53.490;10.174;2024-02-15T05:53:39;18.00;72.50
3504;DHT22;1766;53.490;10.174;2024-02-15T05:55:41;18.00;72.60
3504;DHT22;1766;53.490;10.174;2024-02-15T05:57:45;18.00;72.50
3504;DHT22;1766;53.490;10.174;2024-02-15T05:59:48;18.10;72.50
3504;DHT22;1766;53.490;10.174;2024-02-15T06:01:50;18.00;72.50
3504;DHT22;1766;53.490;10.174;2024-02-15T06:03:52;18.00;72.50
3504;DHT22;1766;53.490;10.174;2024-02-15T06:05:58;18.00;72.20
3504;DHT22;1766;53.490;10.174;2024-02-15T06:08:02;18.00;72.60
3504;DHT22;1766;53.490;10.174;2024-02-15T06:10:05;18.00;72.60
3504;DHT22;1766;53.490;10.174;2024-02-15T06:12:08;18.00;72.60
3504;DHT22;1766;53.490;10.174;2024-02-15T06:14:10;17.90;72.40
3504;DHT22;1766;53.490;10.174;2024-02-15T06:16:14;18.00;72.50
3504;DHT22;1766;53.490;10.174;2024-02-15T06:18:16;18.00;72.50
3504;DHT22;1766;53.490;10.174;2024-02-15T06:20:21;18.00;72.60
3504;DHT22;1766;53.490;10.174;2024-02-15T06:22:23;18.00;72.50
3504;DHT22;1766;53.490;10.174;2024-02-15T06:24:27;18.00;72.10
3504;DHT22;1766;53.490;10.174;2024-02-15T06:26:28;18.00;72.60
3504;DHT22;1766;53.490;10.174;2024-02-15T06:28:30;18.00;72.50
3504;DHT22;1766;53.490;10.174;2024-02-15T06:30:46;18.00;72.60
3504;DHT22;1766;53.490;10.174;2024-02-15T06:33:03;18.00;72.60
3504;DHT22;1766;53.490;10.174;2024-02-15T06:35:19;17.90;72.50
3504;DHT22;1766;53.490;10.174;2024-02-15T06:37:36;17.90;72.10
3504;DHT22;1766;53.490;10.174;2024-02-15T06:39:52;17.90;72.70
3504;DHT22;1766;53.490;10.174;2024-02-15T06:41:54;17.90;72.60
3504;DHT22;1766;53.490;10.174;2024-02-15T06:43:57;17.90;72.60
3504;DHT22;1766;53.490;10.174;2024-02-15T06:45:59;17.90;72.50
3504;DHT22;1766;53.490;10.174;2024-02-15T06:47:59;17.90;72.60
3504;DHT22;1766;53.490;10.174;2024-02-15T06:50:03;17.90;72.60
3504;DHT22;1766;53.490;10.174;2024-02-15T06:52:06;17.90;72.70
3504;DHT22;1766;53.490;10.174;2024-02-15T06:54:07;17.90;72.90
3504;DHT22;1766;53.490;10.174;2024-02-15T06:56:10;17.90;72.80
3504;DHT22;1766;53.490;10.174;2024-02-15T06:58:12;17.90;72.30
3504;DHT22;1766;53.490;10.174;2024-02-15T07:00:16;17.90;72.80
3504;DHT22;1766;53.490;10.174;2024-02-15T07:02:19;17.90;72.80
3504;DHT22;1766;53.490;10.174;2024-02-15T07:04:23;17.90;72.50
3504;DHT22;1766;53.490;10.174;2024-02-15T07:06:27;17.90;73.00
3504;DHT22;1766;53.490;10.174;2024-02-15T07:08:30;17.90;73.00
3504;DHT22;1766;53.490;10.174;2024-02-15T07:10:33;17.90;72.50
3504;DHT22;1766;53.490;10.174;2024-02-15T07:12:36;17.90;73.00
3504;DHT22;1766;53.490;10.174;2024-02-15T07:14:38;17.90;72.50
3504;DHT22;1766;53.490;10.174;2024-02-15T07:16:40;17.90;72.50
3504;DHT22;1766;53.490;10.174;2024-02-15T07:18:45;17.90;73.10
3504;DHT22;1766;53.490;10.174;2024-02-15T07:20:47;17.90;73.00
3504;DHT22;1766;53.490;10.174;2024-02-15T07:22:50;17.90;72.50
3504;DHT22;1766;53.490;10.174;2024-02-15T07:24:52;18.00;73.10
3504;DHT22;1766;53.490;10.174;2024-02-15T07:26:54;18.00;73.10
3504;DHT22;1766;53.490;10.174;2024-02-15T07:28:56;18.00;73.10
3504;DHT22;1766;53.490;10.174;2024-02-15T07:30:58;18.00;72.70
3504;DHT22;1766;53.490;10.174;2024-02-15T07:33:03;18.00;73.10
3504;DHT22;1766;53.490;10.174;2024-02-15T07:35:07;18.00;73.10
3504;DHT22;1766;53.490;10.174;2024-02-15T07:37:09;18.00;73.30
3504;DHT22;1766;53.490;10.174;2024-02-15T07:39:14;17.90;72.60
3504;DHT22;1766;53.490;10.174;2024-02-15T07:41:23;18.00;72.70
3504;DHT22;1766;53.490;10.174;2024-02-15T07:43:25;17.90;73.10
3504;DHT22;1766;53.490;10.174;2024-02-15T07:45:27;18.00;72.80
3504;DHT22;1766;53.490;10.174;2024-02-15T07:47:29;18.00;72.80
3504;DHT22;1766;53.490;10.174;2024-02-15T07:49:31;18.00;73.60
3504;DHT22;1766;53.490;10.174;2024-02-15T07:51:33;18.00;73.20
3504;DHT22;1766;53.490;10.174;2024-02-15T07:53:36;18.00;73.10
3504;DHT22;1766;53.490;10.174;2024-02-15T07:55:38;18.00;72.70
3504;DHT22;1766;53.490;10.174;2024-02-15T07:57:41;18.00;73.10
3504;DHT22;1766;53.490;10.174;2024-02-15T07:59:43;18.00;73.10
3504;DHT22;1766;53.490;10.174;2024-02-15T08:01:45;18.00;72.70
3504;DHT22;1766;53.490;10.174;2024-02-15T08:03:49;18.00;73.20
3504;DHT22;1766;53.490;10.174;2024-02-15T08:05:51;18.10;73.30
3504;DHT22;1766;53.490;10.174;2024-02-15T08:07:53;18.10;72.80
3504;DHT22;1766;53.490;10.174;2024-02-15T08:09:58;18.10;73.20
3504;DHT22;1766;53.490;10.174;2024-02-15T08:12:01;18.10;72.70
3504;DHT22;1766;53.490;10.174;2024-02-15T08:14:03;18.20;72.90
3504;DHT22;1766;53.490;10.174;2024-02-15T08:16:08;18.20;73.40
3504;DHT22;1766;53.490;10.174;2024-02-15T08:18:11;18.20;73.30
3504;DHT22;1766;53.490;10.174;2024-02-15T08:20:14;18.10;73.10
3504;DHT22;1766;53.490;10.174;2024-02-15T08:22:21;18.20;73.40
3504;DHT22;1766;53.490;10.174;2024-02-15T08:24:24;18.20;73.30
3504;DHT22;1766;53.490;10.174;2024-02-15T08:26:26;18.20;73.30
3504;DHT22;1766;53.490;10.174;2024-02-15T08:28:31;18.20;73.40
3504;DHT22;1766;53.490;10.174;2024-02-15T08:30:33;18.20;73.30
3504;DHT22;1766;53.490;10.174;2024-02-15T08:32:34;18.10;73.10
3504;DHT22;1766;53.490;10.174;2024-02-15T08:34:37;18.20;73.30
3504;DHT22;1766;53.490;10.174;2024-02-15T08:36:40;18.20;73.30
3504;DHT22;1766;53.490;10.174;2024-02-15T08:38:42;18.20;73.30
3504;DHT22;1766;53.490;10.174;2024-02-15T08:40:46;18.20;72.80
3504;DHT22;1766;53.490;10.174;2024-02-15T08:42:48;18.20;73.30
3504;DHT22;1766;53.490;10.174;2024-02-15T08:44:51;18.20;73.30
3504;DHT22;1766;53.490;10.174;2024-02-15T08:46:53;18.20;73.30
3504;DHT22;1766;53.490;10.174;2024-02-15T08:48:56;18.20;73.30
3504;DHT22;1766;53.490;10.174;2024-02-15T08:50:58;18.20;73.30
3504;DHT22;1766;53.490;10.174;2024-02-15T08:53:00;18.20;73.30
3504;DHT22;1766;53.490;10.174;2024-02-15T08:55:02;18.30;73.60
3504;DHT22;1766;53.490;10.174;2024-02-15T08:57:07;18.30;73.60
3504;DHT22;1766;53.490;10.174;2024-02-15T08:59:09;18.30;73.50
3504;DHT22;1766;53.490;10.174;2024-02-15T09:01:12;18.30;73.10
3504;DHT22;1766;53.490;10.174;2024-02-15T09:03:15;18.30;73.60
3504;DHT22;1766;53.490;10.174;2024-02-15T09:05:19;18.30;73.60
3504;DHT22;1766;53.490;10.174;2024-02-15T09:07:22;18.30;73.60
3504;DHT22;1766;53.490;10.174;2024-02-15T09:09:24;18.40;73.60
3504;DHT22;1766;53.490;10.174;2024-02-15T09:11:28;18.30;73.50
3504;DHT22;1766;53.490;10.174;2024-02-15T09:13:30;18.30;73.70
3504;DHT22;1766;53.490;10.174;2024-02-15T09:15:32;18.40;73.70
3504;DHT22;1766;53.490;10.174;2024-02-15T09:17:37;18.40;73.70
3504;DHT22;1766;53.490;10.174;2024-02-15T09:19:39;18.40;73.70
3504;DHT22;1766;53.490;10.174;2024-02-15T09:21:42;18.40;73.70
3504;DHT22;1766;53.490;10.174;2024-02-15T09:23:43;18.40;73.70
3504;DHT22;1766;53.490;10.174;2024-02-15T09:25:44;18.40;73.60
3504;DHT22;1766;53.490;10.174;2024-02-15T09:27:45;18.40;73.70
3504;DHT22;1766;53.490;10.174;2024-02-15T09:29:47;18.40;73.70
3504;DHT22;1766;53.490;10.174;2024-02-15T09:31:49;18.40;73.30
3504;DHT22;1766;53.490;10.174;2024-02-15T09:33:54;18.40;73.70
3504;DHT22;1766;53.490;10.174;2024-02-15T09:35:56;18.40;73.80
3504;DHT22;1766;53.490;10.174;2024-02-15T09:37:58;18.40;73.80
3504;DHT22;1766;53.490;10.174;2024-02-15T09:40:00;18.40;73.80
3504;DHT22;1766;53.490;10.174;2024-02-15T09:42:06;18.50;74.10
3504;DHT22;1766;53.490;10.174;2024-02-15T09:44:09;18.40;73.50
3504;DHT22;1766;53.490;10.174;2024-02-15T09:46:14;18.50;74.10
3504;DHT22;1766;53.490;10.174;2024-02-15T09:48:18;18.50;74.10
3504;DHT22;1766;53.490;10.174;2024-02-15T09:50:24;18.50;74.00
3504;DHT22;1766;53.490;10.174;2024-02-15T09:52:28;18.50;73.60
3504;DHT22;1766;53.490;10.174;2024-02-15T09:54:33;18.60;74.30
3504;DHT22;1766;53.490;10.174;2024-02-15T09:56:35;18.60;74.10
3504;DHT22;1766;53.490;10.174;2024-02-15T09:58:38;18.60;74.10
3504;DHT22;1766;53.490;10.174;2024-02-15T10:00:40;18.60;74.10
3504;DHT22;1766;53.490;10.174;2024-02-15T10:02:46;18.60;74.10
3504;DHT22;1766;53.490;10.174;2024-02-15T10:04:48;18.60;74.10
3504;DHT22;1766;53.490;10.174;2024-02-15T10:06:52;18.60;74.00
3504;DHT22;1766;53.490;10.174;2024-02-15T10:08:54;18.60;74.10
3504;DHT22;1766;53.490;10.174;2024-02-15T10:11:30;18.60;74.30
3504;DHT22;1766;53.490;10.174;2024-02-15T10:13:32;18.60;74.10
3504;DHT22;1766;53.490;10.174;2024-02-15T10:15:36;18.60;74.10
3504;DHT22;1766;53.490;10.174;2024-02-15T10:17:38;18.60;74.30
3504;DHT22;1766;53.490;10.174;2024-02-15T10:19:39;18.60;74.20
3504;DHT22;1766;53.490;10.174;2024-02-15T10:21:44;18.60;74.30
3504;DHT22;1766;53.490;10.174;2024-02-15T10:23:46;18.60;74.30
3504;DHT22;1766;53.490;10.174;2024-02-15T10:25:48;18.70;74.30
3504;DHT22;1766;53.490;10.174;2024-02-15T10:27:50;18.60;74.20
3504;DHT22;1766;53.490;10.174;2024-02-15T10:32:34;18.70;74.30
3504;DHT22;1766;53.490;10.174;2024-02-15T10:34:43;18.70;74.40
3504;DHT22;1766;53.490;10.174;2024-02-15T10:36:46;18.60;74.30
3504;DHT22;1766;53.490;10.174;2024-02-15T10:38:49;18.60;74.30
3504;DHT22;1766;53.490;10.174;2024-02-15T10:41:02;18.60;74.30
3504;DHT22;1766;53.490;10.174;2024-02-15T10:43:06;18.80;74.50
3504;DHT22;1766;53.490;10.174;2024-02-15T10:45:09;18.70;74.40
3504;DHT22;1766;53.490;10.174;2024-02-15T10:47:12;18.60;74.30
3504;DHT22;1766;53.490;10.174;2024-02-15T10:49:13;18.60;74.30
3504;DHT22;1766;53.490;10.174;2024-02-15T10:51:17;18.60;74.40
3504;DHT22;1766;53.490;10.174;2024-02-15T10:53:23;18.70;74.40
3504;DHT22;1766;53.490;10.174;2024-02-15T10:55:37;18.70;74.60
3504;DHT22;1766;53.490;10.174;2024-02-15T10:57:46;18.70;74.60
3504;DHT22;1766;53.490;10.174;2024-02-15T10:59:54;18.70;74.80
3504;DHT22;1766;53.490;10.174;2024-02-15T11:01:59;18.70;74.70
3504;DHT22;1766;53.490;10.174;2024-02-15T11:04:07;18.80;74.90
3504;DHT22;1766;53.490;10.174;2024-02-15T11:06:11;18.80;74.80
3504;DHT22;1766;53.490;10.174;2024-02-15T11:08:14;18.80;74.90
3504;DHT22;1766;53.490;10.174;2024-02-15T11:10:17;18.80;74.80
3504;DHT22;1766;53.490;10.174;2024-02-15T11:12:20;18.90;74.90
3504;DHT22;1766;53.490;10.174;2024-02-15T11:14:25;18.80;74.70
3504;DHT22;1766;53.490;10.174;2024-02-15T11:16:44;18.90;74.90
3504;DHT22;1766;53.490;10.174;2024-02-15T11:18:47;18.90;74.70
3504;DHT22;1766;53.490;10.174;2024-02-15T11:20:51;18.90;74.80
3504;DHT22;1766;53.490;10.174;2024-02-15T11:22:56;18.90;74.80
3504;DHT22;1766;53.490;10.174;2024-02-15T11:24:59;19.00;75.00
3504;DHT22;1766;53.490;10.174;2024-02-15T11:27:02;19.00;75.00
3504;DHT22;1766;53.490;10.174;2024-02-15T11:29:06;19.00;74.80
3504;DHT22;1766;53.490;10.174;2024-02-15T11:31:09;19.00;74.70
3504;DHT22;1766;53.490;10.174;2024-02-15T11:33:27;19.00;74.80
3504;DHT22;1766;53.490;10.174;2024-02-15T11:35:29;19.00;74.70
3504;DHT22;1766;53.490;10.174;2024-02-15T11:37:50;19.00;74.70
3504;DHT22;1766;53.490;10.174;2024-02-15T11:39:58;19.00;74.80
3504;DHT22;1766;53.490;10.174;2024-02-15T11:44:34;19.00;74.80
3504;DHT22;1766;53.490;10.174;2024-02-15T11:46:36;19.00;74.70
3504;DHT22;1766;53.490;10.174;2024-02-15T11:48:39;19.00;74.60
3504;DHT22;1766;53.490;10.174;2024-02-15T11:50:41;19.00;74.70
3504;DHT22;1766;53.490;10.174;2024-02-15T11:52:43;19.00;74.60
3504;DHT22;1766;53.490;10.174;2024-02-15T11:54:46;19.00;74.70
3504;DHT22;1766;53.490;10.174;2024-02-15T11:56:50;19.00;74.60
3504;DHT22;1766;53.490;10.174;2024-02-15T11:59:02;19.00;74.70
3504;DHT22;1766;53.490;10.174;2024-02-15T12:01:08;19.00;74.50
3504;DHT22;1766;53.490;10.174;2024-02-15T12:03:25;19.00;74.50
3504;DHT22;1766;53.490;10.174;2024-02-15T12:05:41;19.00;74.30
3504;DHT22;1766;53.490;10.174;2024-02-15T12:07:56;19.00;74.20
3504;DHT22;1766;53.490;10.174;2024-02-15T12:10:16;18.90;74.30
3504;DHT22;1766;53.490;10.174;2024-02-15T12:12:32;19.00;74.40
3504;DHT22;1766;53.490;10.174;2024-02-15T12:14:48;18.90;74.20
3504;DHT22;1766;53.490;10.174;2024-02-15T12:17:06;18.90;74.20
3504;DHT22;1766;53.490;10.174;2024-02-15T12:19:22;18.90;74.30
3504;DHT22;1766;53.490;10.174;2024-02-15T12:21:26;18.90;74.20
3504;DHT22;1766;53.490;10.174;2024-02-15T12:23:30;18.90;74.30
3504;DHT22;1766;53.490;10.174;2024-02-15T12:25:36;18.90;74.20
3504;DHT22;1766;53.490;10.174;2024-02-15T12:27:40;18.90;74.10
3504;DHT22;1766;53.490;10.174;2024-02-15T12:29:43;18.90;74.30
3504;DHT22;1766;53.490;10.174;2024-02-15T12:31:47;18.80;74.00
3504;DHT22;1766;53.490;10.174;2024-02-15T12:34:01;18.80;74.10
3504;DHT22;1766;53.490;10.174;2024-02-15T12:36:07;18.80;73.70
3504;DHT22;1766;53.490;10.174;2024-02-15T12:38:12;18.80;74.30
3504;DHT22;1766;53.490;10.174;2024-02-15T12:40:17;18.80;74.30
3504;DHT22;1766;53.490;10.174;2024-02-15T12:42:22;18.80;74.40
3504;DHT22;1766;53.490;10.174;2024-02-15T12:44:25;18.80;74.30
3504;DHT22;1766;53.490;10.174;2024-02-15T12:46:27;18.80;74.30
3504;DHT22;1766;53.490;10.174;2024-02-15T12:48:29;18.80;74.30
3504;DHT22;1766;53.490;10.174;2024-02-15T12:50:33;18.80;74.30
3504;DHT22;1766;53.490;10.174;2024-02-15T12:52:36;18.80;74.40
3504;DHT22;1766;53.490;10.174;2024-02-15T12:54:39;18.80;74.40
3504;DHT22;1766;53.490;10.174;2024-02-15T12:56:42;18.80;74.30
3504;DHT22;1766;53.490;10.174;2024-02-15T12:58:44;18.70;74.20
3504;DHT22;1766;53.490;10.174;2024-02-15T13:00:47;18.80;74.30
3504;DHT22;1766;53.490;10.174;2024-02-15T13:02:50;18.70;74.20
3504;DHT22;1766;53.490;10.174;2024-02-15T13:04:57;18.70;74.30
3504;DHT22;1766;53.490;10.174;2024-02-15T13:07:01;18.70;74.30
3504;DHT22;1766;53.490;10.174;2024-02-15T13:09:02;18.80;74.40
3504;DHT22;1766;53.490;10.174;2024-02-15T13:11:06;18.70;74.20
3504;DHT22;1766;53.490;10.174;2024-02-15T13:13:09;18.70;74.30
3504;DHT22;1766;53.490;10.174;2024-02-15T13:15:13;18.70;74.30
3504;DHT22;1766;53.490;10.174;2024-02-15T13:17:17;18.70;74.30
3504;DHT22;1766;53.490;10.174;2024-02-15T13:19:18;18.70;74.40